createdAt,value
2022-10-21T00:00:54.048Z,29.59
2022-10-21T00:03:36.813Z,29.51
2022-10-21T00:06:05.493Z,29.70
2022-10-21T00:08:34.211Z,29.75
2022-10-21T00:11:04.165Z,29.15
2022-10-21T00:13:33.386Z,29.04
2022-10-21T00:16:03.556Z,29.31
2022-10-21T00:18:32.961Z,29.58
2022-10-21T00:21:05.738Z,29.36
2022-10-21T00:23:34.220Z,29.62
2022-10-21T00:26:02.641Z,29.47
2022-10-21T00:28:30.994Z,28.85
2022-10-21T00:30:59.732Z,28.82
2022-10-21T00:33:30.823Z,28.61
2022-10-21T00:36:02.588Z,28.74
2022-10-21T00:38:33.100Z,28.67
2022-10-21T00:41:01.419Z,28.59
2022-10-21T00:43:30.206Z,28.94
2022-10-21T00:46:01.760Z,28.28
2022-10-21T00:48:33.343Z,28.20
2022-10-21T00:51:02.286Z,27.07
2022-10-21T00:53:33.585Z,27.83
2022-10-21T00:56:05.625Z,27.54
2022-10-21T00:58:35.229Z,28.12
2022-10-21T01:01:05.303Z,27.88
2022-10-21T01:03:34.794Z,28.52
2022-10-21T01:06:05.940Z,28.47
2022-10-21T01:08:35.687Z,27.50
2022-10-21T01:11:04.421Z,28.64
2022-10-21T01:13:40.121Z,28.01
2022-10-21T01:16:12.053Z,28.33
2022-10-21T01:18:46.598Z,28.39
2022-10-21T01:21:22.105Z,28.47
2022-10-21T01:24:25.443Z,28.60
2022-10-21T01:27:07.188Z,28.77
2022-10-21T01:30:08.332Z,29.13
2022-10-21T01:32:52.574Z,28.92
2022-10-21T01:35:23.155Z,29.26
2022-10-21T01:37:56.781Z,28.97
2022-10-21T01:40:28.477Z,29.23
2022-10-21T01:42:56.647Z,28.02
2022-10-21T01:45:30.900Z,28.72
2022-10-21T01:48:03.009Z,29.17
2022-10-21T01:50:34.423Z,29.54
2022-10-21T01:53:06.197Z,29.35
2022-10-21T01:55:34.859Z,29.73
2022-10-21T01:58:04.870Z,29.43
2022-10-21T02:00:34.578Z,29.54
2022-10-21T02:03:06.785Z,29.21
2022-10-21T02:05:35.848Z,29.35
2022-10-21T02:08:04.476Z,29.54
2022-10-21T02:10:35.159Z,29.40
2022-10-21T02:13:05.131Z,29.52
2022-10-21T02:15:34.524Z,29.72
2022-10-21T02:18:07.237Z,29.41
2022-10-21T02:20:38.081Z,29.53
2022-10-21T02:23:08.301Z,29.36
2022-10-21T02:25:37.972Z,29.71
2022-10-21T02:28:06.269Z,29.80
2022-10-21T02:30:40.473Z,29.44
2022-10-21T02:33:12.408Z,29.47
2022-10-21T02:35:45.203Z,29.60
2022-10-21T02:38:20.171Z,29.10
2022-10-21T02:40:51.817Z,29.61
2022-10-21T02:43:20.377Z,28.56
2022-10-21T02:45:49.321Z,29.97
2022-10-21T02:48:18.890Z,30.09
2022-10-21T02:50:47.126Z,30.50
2022-10-21T02:53:15.474Z,30.38
2022-10-21T02:55:43.803Z,30.21
2022-10-21T02:58:11.870Z,30.44
2022-10-21T03:00:40.251Z,30.22
2022-10-21T03:03:08.439Z,30.43
2022-10-21T03:05:38.034Z,30.21
2022-10-21T03:08:06.980Z,30.41
2022-10-21T03:10:35.260Z,30.68
2022-10-21T03:13:03.561Z,30.75
2022-10-21T03:15:31.866Z,30.82
2022-10-21T03:17:59.909Z,30.76
2022-10-21T03:20:28.341Z,30.92
2022-10-21T03:22:57.861Z,31.32
2022-10-21T03:25:26.341Z,31.35
2022-10-21T03:27:54.421Z,31.38
2022-10-21T03:30:22.817Z,31.58
2022-10-21T03:32:51.005Z,31.56
2022-10-21T03:35:19.413Z,31.11
2022-10-21T03:37:47.580Z,31.29
2022-10-21T03:40:18.159Z,30.96
2022-10-21T03:42:46.407Z,30.96
2022-10-21T03:45:14.755Z,30.97
2022-10-21T03:47:42.937Z,31.04
2022-10-21T03:50:13.978Z,30.94
2022-10-21T03:52:44.670Z,31.18
2022-10-21T03:55:13.459Z,30.74
2022-10-21T03:57:43.362Z,30.83
2022-10-21T04:02:46.351Z,30.85
2022-10-21T04:05:15.085Z,30.88
2022-10-21T04:07:43.236Z,31.04
2022-10-21T04:10:12.197Z,31.29
2022-10-21T04:12:40.574Z,31.04
2022-10-21T04:15:13.743Z,30.58
2022-10-21T04:17:42.068Z,30.71
2022-10-21T04:20:11.995Z,30.57
2022-10-21T04:22:40.468Z,30.88
2022-10-21T04:25:09.465Z,30.82
2022-10-21T04:27:37.715Z,30.87
2022-10-21T04:30:07.549Z,30.85
2022-10-21T04:32:37.552Z,30.56
2022-10-21T04:35:06.909Z,30.98
2022-10-21T04:37:40.205Z,31.07
2022-10-21T04:40:10.403Z,30.79
2022-10-21T04:42:38.595Z,30.96
2022-10-21T04:45:07.898Z,31.03
2022-10-21T04:47:37.743Z,30.65
2022-10-21T04:50:06.973Z,30.91
2022-10-21T04:52:35.330Z,30.76
2022-10-21T04:55:03.655Z,31.06
2022-10-21T04:57:31.802Z,30.79
2022-10-21T05:00:00.068Z,30.72
2022-10-21T05:02:28.407Z,30.69
2022-10-21T05:04:58.087Z,30.55
2022-10-21T05:07:26.355Z,31.16
2022-10-21T05:09:54.744Z,31.06
2022-10-21T05:12:22.924Z,31.18
2022-10-21T05:14:51.314Z,30.64
2022-10-21T05:17:19.384Z,30.58
2022-10-21T05:19:47.797Z,30.50
2022-10-21T05:22:17.294Z,30.32
2022-10-21T05:24:45.863Z,30.55
2022-10-21T05:27:13.988Z,30.44
2022-10-21T05:29:42.330Z,30.43
2022-10-21T05:32:10.426Z,30.24
2022-10-21T05:34:38.920Z,30.08
2022-10-21T05:37:07.113Z,30.33
2022-10-21T05:39:36.969Z,30.01
2022-10-21T05:42:05.380Z,29.81
2022-10-21T05:44:33.764Z,29.72
2022-10-21T05:47:01.835Z,29.74
2022-10-21T05:49:30.205Z,29.69
2022-10-21T05:51:58.512Z,29.76
2022-10-21T05:54:26.965Z,28.92
2022-10-21T05:56:58.018Z,27.14
2022-10-21T05:59:27.029Z,26.85
2022-10-21T06:01:55.075Z,25.58
2022-10-21T06:04:23.469Z,25.15
2022-10-21T06:06:51.676Z,25.42
2022-10-21T06:09:20.038Z,25.43
2022-10-21T06:11:48.322Z,25.15
2022-10-21T06:14:19.927Z,25.27
2022-10-21T06:16:48.162Z,25.57
2022-10-21T06:19:16.595Z,25.71
2022-10-21T06:21:44.788Z,25.25
2022-10-21T06:24:13.590Z,25.64
2022-10-21T06:26:41.790Z,26.07
2022-10-21T06:29:10.352Z,26.14
2022-10-21T06:31:39.863Z,26.26
2022-10-21T06:34:08.229Z,26.66
2022-10-21T06:36:38.293Z,26.57
2022-10-21T06:39:06.814Z,26.85
2022-10-21T06:41:35.219Z,26.83
2022-10-21T06:44:03.562Z,26.89
2022-10-21T06:46:31.969Z,26.03
2022-10-21T06:49:01.703Z,25.69
2022-10-21T06:51:30.545Z,25.20
2022-10-21T06:54:00.220Z,24.55
2022-10-21T06:56:29.243Z,23.77
2022-10-21T06:58:59.301Z,22.91
2022-10-21T07:01:35.226Z,22.84
2022-10-21T07:04:17.981Z,22.27
2022-10-21T07:06:46.464Z,21.43
2022-10-21T07:09:14.824Z,20.30
2022-10-21T07:11:43.244Z,18.17
2022-10-21T07:14:12.450Z,18.07
2022-10-21T07:16:40.634Z,17.20
2022-10-21T07:19:09.093Z,17.05
2022-10-21T07:21:38.621Z,16.06
2022-10-21T07:24:07.235Z,14.85
2022-10-21T07:26:38.722Z,14.79
2022-10-21T07:29:10.217Z,16.29
2022-10-21T07:31:39.409Z,16.66
2022-10-21T07:34:09.615Z,17.40
2022-10-21T07:36:41.991Z,18.25
2022-10-21T07:39:12.999Z,19.33
2022-10-21T07:41:43.476Z,19.63
2022-10-21T07:44:12.596Z,20.19
2022-10-21T07:46:41.572Z,20.66
2022-10-21T07:49:10.785Z,20.43
2022-10-21T07:51:41.332Z,20.10
2022-10-21T07:54:10.066Z,19.98
2022-10-21T07:56:40.571Z,19.84
2022-10-21T07:59:12.928Z,19.34
2022-10-21T08:01:44.814Z,19.04
2022-10-21T08:04:14.281Z,19.05
2022-10-21T08:06:44.258Z,19.21
2022-10-21T08:09:12.635Z,19.18
2022-10-21T08:11:40.820Z,18.96
2022-10-21T08:14:10.120Z,19.14
2022-10-21T08:16:38.494Z,19.42
2022-10-21T08:19:07.988Z,18.80
2022-10-21T08:21:38.368Z,18.61
2022-10-21T08:24:08.316Z,18.53
2022-10-21T08:26:36.416Z,18.45
2022-10-21T08:29:05.268Z,18.68
2022-10-21T08:31:33.501Z,18.61
2022-10-21T08:34:01.957Z,18.40
2022-10-21T08:36:30.258Z,17.78
2022-10-21T08:38:59.529Z,17.96
2022-10-21T08:41:37.480Z,17.52
2022-10-21T08:44:07.204Z,18.23
2022-10-21T08:46:37.111Z,18.22
2022-10-21T08:49:10.711Z,17.29
2022-10-21T08:51:42.448Z,17.28
2022-10-21T08:54:15.228Z,17.39
2022-10-21T08:56:45.186Z,17.45
2022-10-21T08:59:20.545Z,17.42
2022-10-21T09:01:55.211Z,18.35
2022-10-21T09:04:29.885Z,19.18
2022-10-21T09:07:02.499Z,19.70
2022-10-21T09:09:33.963Z,20.17
2022-10-21T09:12:07.178Z,20.17
2022-10-21T09:14:47.413Z,20.38
2022-10-21T09:17:23.983Z,20.53
2022-10-21T09:19:56.952Z,20.88
2022-10-21T09:22:37.936Z,20.74
2022-10-21T09:25:19.175Z,20.88
2022-10-21T09:27:56.375Z,21.26
2022-10-21T09:30:25.977Z,21.44
2022-10-21T09:32:59.133Z,21.13
2022-10-21T09:35:33.845Z,21.37
2022-10-21T09:38:04.240Z,21.79
2022-10-21T09:40:34.038Z,22.10
2022-10-21T09:43:04.288Z,21.93
2022-10-21T09:45:34.402Z,22.58
2022-10-21T09:48:04.921Z,22.57
2022-10-21T09:50:34.493Z,23.08
2022-10-21T09:53:08.144Z,22.79
2022-10-21T09:55:36.581Z,22.83
2022-10-21T09:58:06.344Z,22.55
2022-10-21T10:00:47.863Z,21.96
2022-10-21T10:03:30.316Z,21.50
2022-10-21T10:05:59.206Z,22.61
2022-10-21T10:08:36.884Z,22.06
2022-10-21T10:11:20.415Z,22.06
2022-10-21T10:13:51.621Z,22.22
2022-10-21T10:16:23.867Z,22.37
2022-10-21T10:18:53.881Z,22.39
2022-10-21T10:21:23.706Z,22.46
2022-10-21T10:23:53.542Z,21.96
2022-10-21T10:26:25.220Z,21.79
2022-10-21T10:28:56.812Z,21.84
2022-10-21T10:31:31.344Z,21.53
2022-10-21T10:34:04.656Z,21.83
2022-10-21T10:36:36.432Z,21.65
2022-10-21T10:39:07.745Z,21.45
2022-10-21T10:41:39.527Z,21.57
2022-10-21T10:44:23.090Z,21.21
2022-10-21T10:46:55.349Z,21.31
2022-10-21T10:49:23.996Z,20.94
2022-10-21T10:52:07.079Z,20.28
2022-10-21T10:54:35.518Z,20.45
2022-10-21T10:57:06.943Z,19.87
2022-10-21T10:59:42.648Z,19.70
2022-10-21T11:02:23.815Z,19.86
2022-10-21T11:05:13.591Z,19.55
2022-10-21T11:07:46.400Z,19.39
2022-10-21T11:10:27.892Z,19.07
2022-10-21T11:12:56.592Z,19.22
2022-10-21T11:15:47.996Z,18.58
2022-10-21T11:18:25.611Z,18.14
2022-10-21T11:21:13.156Z,19.09
2022-10-21T11:24:02.187Z,18.83
2022-10-21T11:26:36.876Z,19.17
2022-10-21T11:29:17.850Z,19.12
2022-10-21T11:32:10.605Z,19.21
2022-10-21T11:34:49.957Z,18.68
2022-10-21T11:37:25.390Z,18.69
2022-10-21T11:39:58.164Z,18.82
2022-10-21T11:42:31.622Z,18.62
2022-10-21T11:45:10.746Z,18.68
2022-10-21T11:47:46.969Z,18.61
2022-10-21T11:53:12.512Z,18.60
2022-10-21T11:56:02.566Z,18.58
2022-10-21T11:58:39.674Z,18.60
2022-10-21T12:01:23.827Z,17.88
2022-10-21T12:04:09.022Z,17.04
2022-10-21T12:06:42.548Z,17.38
2022-10-21T12:09:15.783Z,17.96
2022-10-21T12:11:47.293Z,18.07
2022-10-21T12:14:30.161Z,18.04
2022-10-21T12:17:01.047Z,17.99
2022-10-21T12:19:30.630Z,17.81
2022-10-21T12:21:59.319Z,18.31
2022-10-21T12:24:41.913Z,18.04
2022-10-21T12:27:18.102Z,17.55
2022-10-21T12:29:54.351Z,17.89
2022-10-21T12:32:27.259Z,17.87
2022-10-21T12:34:56.948Z,17.95
2022-10-21T12:37:45.283Z,17.01
2022-10-21T12:40:15.600Z,17.83
2022-10-21T12:42:48.802Z,17.45
2022-10-21T12:45:28.380Z,17.35
2022-10-21T12:47:57.883Z,17.93
2022-10-21T12:50:30.072Z,17.91
2022-10-21T12:53:08.212Z,17.21
2022-10-21T12:55:41.204Z,17.81
2022-10-21T12:58:22.959Z,17.26
2022-10-21T13:00:57.081Z,17.55
2022-10-21T13:03:50.542Z,17.60
2022-10-21T13:06:49.774Z,17.33
2022-10-21T13:09:38.087Z,17.77
2022-10-21T13:12:27.348Z,18.02
2022-10-21T13:14:56.743Z,18.30
2022-10-21T13:17:50.903Z,17.63
2022-10-21T13:20:50.056Z,18.18
2022-10-21T13:23:41.690Z,17.79
2022-10-21T13:26:31.162Z,17.40
2022-10-21T13:29:02.723Z,18.43
2022-10-21T13:31:31.186Z,18.70
2022-10-21T13:33:59.479Z,18.41
2022-10-21T13:39:25.692Z,18.09
2022-10-21T13:42:00.675Z,18.20
2022-10-21T13:44:32.140Z,18.35
2022-10-21T13:47:00.536Z,18.39
2022-10-21T13:49:30.265Z,18.02
2022-10-21T13:51:59.328Z,18.39
2022-10-21T13:54:35.877Z,17.99
2022-10-21T13:57:07.362Z,17.79
2022-10-21T13:59:35.571Z,18.45
2022-10-21T14:02:05.358Z,18.15
2022-10-21T14:04:34.820Z,18.21
2022-10-21T14:07:06.251Z,17.99
2022-10-21T14:09:40.227Z,17.84
2022-10-21T14:12:10.040Z,18.54
2022-10-21T14:14:40.150Z,18.63
2022-10-21T14:17:10.587Z,18.57
2022-10-21T14:19:39.976Z,18.17
2022-10-21T14:22:10.399Z,18.52
2022-10-21T14:24:42.192Z,18.20
2022-10-21T14:27:13.016Z,18.08
2022-10-21T14:29:41.974Z,18.57
2022-10-21T14:32:14.484Z,18.22
2022-10-21T14:35:00.053Z,17.96
2022-10-21T14:37:28.538Z,18.25
2022-10-21T14:40:10.976Z,17.69
2022-10-21T14:42:41.117Z,18.36
2022-10-21T14:45:17.438Z,18.13
2022-10-21T14:47:50.400Z,18.46
2022-10-21T14:50:21.728Z,19.24
2022-10-21T14:52:50.275Z,19.31
2022-10-21T14:55:29.049Z,19.16
2022-10-21T14:58:02.884Z,19.12
2022-10-21T15:00:34.962Z,19.18
2022-10-21T15:03:03.531Z,19.94
2022-10-21T15:05:35.621Z,20.17
2022-10-21T15:08:32.402Z,19.21
2022-10-21T15:11:23.738Z,19.41
2022-10-21T15:14:00.291Z,20.14
2022-10-21T15:16:30.660Z,20.19
2022-10-21T15:18:59.589Z,20.53
2022-10-21T15:21:33.814Z,20.43
2022-10-21T15:24:02.631Z,20.50
2022-10-21T15:26:35.486Z,20.36
2022-10-21T15:29:13.926Z,20.69
2022-10-21T15:31:42.103Z,20.98
2022-10-21T15:34:14.501Z,20.79
2022-10-21T15:36:42.739Z,21.11
2022-10-21T15:39:11.362Z,21.31
2022-10-21T15:41:41.414Z,21.34
2022-10-21T15:44:19.397Z,20.71
2022-10-21T15:46:50.012Z,20.94
2022-10-21T15:49:20.847Z,21.21
2022-10-21T15:51:49.937Z,21.32
2022-10-21T15:54:19.909Z,21.36
2022-10-21T15:56:52.695Z,20.92
2022-10-21T15:59:23.674Z,21.25
2022-10-21T16:01:52.232Z,21.36
2022-10-21T16:04:20.806Z,21.37
2022-10-21T16:06:49.655Z,21.56
2022-10-21T16:09:20.997Z,21.40
2022-10-21T16:11:59.525Z,21.06
2022-10-21T16:14:30.138Z,21.34
2022-10-21T16:16:59.901Z,21.31
2022-10-21T16:19:29.073Z,21.21
2022-10-21T16:21:57.535Z,21.19
2022-10-21T16:24:26.054Z,21.55
2022-10-21T16:26:55.503Z,21.03
2022-10-21T16:29:24.788Z,21.20
2022-10-21T16:31:52.934Z,21.19
2022-10-21T16:34:21.353Z,21.24
2022-10-21T16:36:49.491Z,21.11
2022-10-21T16:39:19.726Z,21.19
2022-10-21T16:41:47.875Z,21.17
2022-10-21T16:44:17.683Z,21.19
2022-10-21T16:46:50.844Z,21.01
2022-10-21T16:49:22.367Z,21.36
2022-10-21T16:51:52.025Z,21.27
2022-10-21T16:54:21.157Z,21.57
2022-10-21T16:56:52.092Z,21.40
2022-10-21T16:59:24.858Z,21.38
2022-10-21T17:01:53.106Z,21.92
2022-10-21T17:04:22.192Z,22.02
2022-10-21T17:06:50.774Z,21.77
2022-10-21T17:09:19.477Z,21.96
2022-10-21T17:11:48.477Z,22.09
2022-10-21T17:14:20.327Z,21.42
2022-10-21T17:16:49.911Z,21.64
2022-10-21T17:19:18.434Z,21.69
2022-10-21T17:21:47.051Z,21.74
2022-10-21T17:24:17.607Z,21.16
2022-10-21T17:26:46.295Z,21.53
2022-10-21T17:29:14.576Z,21.53
2022-10-21T17:31:44.184Z,21.31
2022-10-21T17:34:26.242Z,20.58
2022-10-21T17:36:55.273Z,21.55
2022-10-21T17:39:24.566Z,21.52
2022-10-21T17:41:52.895Z,21.27
2022-10-21T17:44:21.543Z,21.53
2022-10-21T17:46:54.359Z,21.46
2022-10-21T17:49:24.726Z,21.11
2022-10-21T17:51:53.452Z,21.26
2022-10-21T17:54:25.976Z,21.21
2022-10-21T17:56:57.283Z,21.35
2022-10-21T17:59:26.841Z,21.15
2022-10-21T18:01:55.007Z,21.25
2022-10-21T18:04:24.833Z,21.48
2022-10-21T18:06:53.084Z,21.49
2022-10-21T18:09:21.516Z,21.10
2022-10-21T18:11:49.774Z,21.25
2022-10-21T18:14:18.047Z,21.32
2022-10-21T18:16:46.311Z,21.11
2022-10-21T18:19:15.279Z,21.13
2022-10-21T18:21:44.901Z,21.30
2022-10-21T18:24:13.698Z,21.52
2022-10-21T18:26:42.250Z,21.33
2022-10-21T18:29:10.693Z,21.30
2022-10-21T18:31:39.876Z,21.27
2022-10-21T18:34:09.408Z,21.52
2022-10-21T18:36:38.007Z,21.56
2022-10-21T18:39:07.884Z,21.36
2022-10-21T18:41:36.311Z,22.09
2022-10-21T18:44:08.429Z,21.69
2022-10-21T18:46:37.753Z,21.96
2022-10-21T18:49:07.854Z,22.12
2022-10-21T18:51:36.074Z,22.42
2022-10-21T18:54:05.518Z,22.31
2022-10-21T18:56:34.993Z,22.41
2022-10-21T18:59:06.401Z,21.92
2022-10-21T19:01:34.716Z,22.45
2022-10-21T19:04:03.323Z,22.39
2022-10-21T19:06:36.070Z,22.37
2022-10-21T19:09:07.560Z,22.45
2022-10-21T19:11:37.161Z,22.36
2022-10-21T19:14:07.323Z,22.76
2022-10-21T19:16:38.241Z,22.84
2022-10-21T19:19:07.395Z,22.60
2022-10-21T19:21:35.634Z,23.01
2022-10-21T19:24:04.383Z,23.08
2022-10-21T19:26:33.511Z,23.11
2022-10-21T19:29:05.966Z,23.04
2022-10-21T19:31:36.202Z,23.45
2022-10-21T19:34:06.202Z,23.21
2022-10-21T19:36:34.622Z,23.50
2022-10-21T19:39:03.169Z,23.39
2022-10-21T19:41:31.345Z,23.38
2022-10-21T19:43:59.962Z,23.45
2022-10-21T19:46:30.444Z,22.91
2022-10-21T19:48:58.895Z,23.50
2022-10-21T19:51:27.582Z,23.64
2022-10-21T19:53:56.738Z,23.54
2022-10-21T19:56:29.569Z,23.69
2022-10-21T19:59:02.880Z,23.87
2022-10-21T20:01:33.655Z,23.64
2022-10-21T20:04:03.211Z,23.80
2022-10-21T20:06:32.936Z,24.10
2022-10-21T20:09:03.181Z,23.70
2022-10-21T20:11:31.577Z,24.34
2022-10-21T20:14:00.150Z,24.28
2022-10-21T20:16:29.764Z,24.23
2022-10-21T20:19:01.223Z,23.95
2022-10-21T20:21:30.994Z,23.93
2022-10-21T20:24:00.118Z,24.26
2022-10-21T20:26:28.843Z,24.28
2022-10-21T20:28:57.799Z,24.12
2022-10-21T20:31:25.891Z,24.39
2022-10-21T20:33:54.288Z,24.41
2022-10-21T20:36:25.297Z,24.14
2022-10-21T20:38:55.188Z,24.27
2022-10-21T20:41:25.795Z,24.48
2022-10-21T20:43:55.351Z,24.54
2022-10-21T20:46:25.298Z,24.62
2022-10-21T20:48:54.604Z,24.72
2022-10-21T20:51:25.634Z,24.45
2022-10-21T20:53:54.981Z,24.89
2022-10-21T20:56:23.613Z,24.69
2022-10-21T20:58:51.878Z,24.69
2022-10-21T21:01:22.605Z,24.78
2022-10-21T21:03:51.594Z,24.71
2022-10-21T21:06:20.635Z,24.64
2022-10-21T21:09:08.547Z,24.45
2022-10-21T21:11:38.590Z,24.72
2022-10-21T21:14:07.201Z,24.47
2022-10-21T21:16:35.302Z,24.41
2022-10-21T21:19:05.375Z,24.30
2022-10-21T21:21:34.977Z,24.16
2022-10-21T21:24:05.662Z,24.16
2022-10-21T21:26:36.322Z,24.39
2022-10-21T21:29:06.326Z,24.31
2022-10-21T21:31:35.835Z,24.03
2022-10-21T21:34:04.883Z,23.97
2022-10-21T21:36:32.995Z,24.21
2022-10-21T21:39:01.380Z,24.15
2022-10-21T21:41:31.076Z,23.96
2022-10-21T21:43:59.474Z,24.32
2022-10-21T21:46:28.249Z,23.98
2022-10-21T21:49:00.889Z,23.94
2022-10-21T21:51:31.935Z,24.02
2022-10-21T21:54:00.373Z,24.08
2022-10-21T21:56:30.010Z,23.85
2022-10-21T21:58:58.720Z,24.05
2022-10-21T22:01:28.549Z,24.15
2022-10-21T22:03:57.910Z,24.00
2022-10-21T22:06:32.111Z,23.99
2022-10-21T22:09:00.940Z,24.08
2022-10-21T22:11:31.942Z,23.94
2022-10-21T22:14:00.745Z,24.29
2022-10-21T22:16:30.597Z,24.13
2022-10-21T22:19:01.084Z,24.15
2022-10-21T22:21:31.430Z,24.14
2022-10-21T22:23:59.832Z,24.14
2022-10-21T22:26:28.930Z,24.24
2022-10-21T22:28:58.791Z,24.19
2022-10-21T22:31:29.521Z,24.24
2022-10-21T22:34:00.882Z,23.59
2022-10-21T22:36:29.071Z,23.99
2022-10-21T22:38:57.847Z,24.02
2022-10-21T22:41:26.043Z,23.96
2022-10-21T22:43:54.456Z,24.09
2022-10-21T22:46:39.410Z,23.94
2022-10-21T22:49:08.214Z,23.60
2022-10-21T22:51:36.533Z,23.94
2022-10-21T22:54:11.595Z,23.78
2022-10-21T22:56:47.739Z,23.97
2022-10-21T22:59:16.166Z,24.00
2022-10-21T23:01:45.611Z,23.68
2022-10-21T23:04:14.099Z,23.85
2022-10-21T23:06:42.211Z,23.71
2022-10-21T23:09:10.577Z,23.98
2022-10-21T23:11:38.949Z,23.91
2022-10-21T23:14:09.580Z,23.81
2022-10-21T23:16:38.430Z,23.94
2022-10-21T23:19:09.367Z,23.61
2022-10-21T23:21:38.187Z,23.69
2022-10-21T23:24:07.540Z,23.64
2022-10-21T23:26:36.744Z,23.63
2022-10-21T23:29:05.693Z,23.73
2022-10-21T23:31:33.929Z,24.08
2022-10-21T23:34:02.920Z,23.93
2022-10-21T23:36:33.072Z,23.50
2022-10-21T23:39:01.864Z,23.72
2022-10-21T23:41:30.225Z,23.66
2022-10-21T23:43:58.588Z,23.64
2022-10-21T23:48:55.897Z,23.60
2022-10-21T23:51:24.085Z,23.54
2022-10-21T23:53:53.757Z,23.38
2022-10-21T23:56:22.113Z,23.64
2022-10-21T23:58:50.346Z,23.64
